Time;durP1;ratioP1;P1;durP2;ratioP2;P2;SDS_P1;SDS_P2;PMS_P1;PMS_P2;Temp;Humidity;BMP_temperature;BMP_pressure;BME280_temperature;BME280_humidity;BME280_pressure;Samples;Min_cycle;Max_cycle;Signal;HPM_P1;HPM_P2
2022/03/17 00:02:09;;;;;;;52.83;20.27;;;;;;;2.37;100.00;97546.19;5096968;28;20537;-35
2022/03/17 00:04:36;;;;;;;45.03;20.07;;;;;;;2.28;100.00;97547.19;5096668;28;20439;-35
2022/03/17 00:07:04;;;;;;;33.37;17.13;;;;;;;2.34;100.00;97546.50;5096922;28;20449;-35
2022/03/17 00:09:31;;;;;;;46.30;22.37;;;;;;;2.30;100.00;97539.94;5096549;28;20431;-35
2022/03/17 00:12:00;;;;;;;36.63;20.40;;;;;;;2.24;100.00;97551.94;5096273;28;20473;-35
2022/03/17 00:14:28;;;;;;;30.67;18.00;;;;;;;2.24;100.00;97554.56;5096648;28;20555;-35
2022/03/17 00:16:55;;;;;;;36.13;17.73;;;;;;;2.24;100.00;97553.75;5096688;28;20471;-35
2022/03/17 00:19:22;;;;;;;41.53;21.37;;;;;;;2.16;100.00;97549.31;5096643;28;20446;-36
2022/03/17 00:21:50;;;;;;;28.07;15.90;;;;;;;2.23;100.00;97559.94;5097485;28;20438;-35
2022/03/17 00:24:18;;;;;;;36.37;15.67;;;;;;;2.22;100.00;97563.56;5096223;28;20446;-36
2022/03/17 00:26:45;;;;;;;27.87;16.00;;;;;;;2.18;100.00;97562.25;5096490;28;20447;-35
2022/03/17 00:29:16;;;;;;;37.57;19.07;;;;;;;2.13;100.00;97559.28;5096177;28;20435;-35
2022/03/17 00:31:43;;;;;;;30.03;15.90;;;;;;;2.10;100.00;97564.88;5096056;28;20427;-35
2022/03/17 00:34:11;;;;;;;31.63;15.90;;;;;;;2.08;100.00;97562.41;5096316;28;20836;-36
2022/03/17 00:36:38;;;;;;;23.30;14.80;;;;;;;1.98;100.00;97562.59;5096001;28;20478;-36
2022/03/17 00:39:08;;;;;;;37.00;18.77;;;;;;;1.83;100.00;97538.03;5096005;28;20481;-35
2022/03/17 00:41:36;;;;;;;38.27;20.10;;;;;;;1.98;100.00;97562.59;5096041;28;20435;-35
2022/03/17 00:44:04;;;;;;;35.43;19.17;;;;;;;2.01;100.00;97546.53;5095942;28;20937;-35
2022/03/17 00:46:32;;;;;;;36.23;16.77;;;;;;;1.99;100.00;97542.44;5095843;28;20446;-35
2022/03/17 00:49:00;;;;;;;42.60;17.23;;;;;;;2.00;100.00;97550.16;5096062;28;20473;-36
2022/03/17 00:51:27;;;;;;;31.30;14.03;;;;;;;2.01;100.00;97549.16;5095767;28;20443;-36
2022/03/17 00:53:54;;;;;;;25.70;13.93;;;;;;;2.08;100.00;97543.25;5095893;28;20539;-36
2022/03/17 00:56:22;;;;;;;54.67;16.83;;;;;;;2.15;100.00;97552.94;5095648;28;21014;-36
2022/03/17 00:58:49;;;;;;;37.20;16.57;;;;;;;2.20;100.00;97553.25;5095532;28;20455;-36
2022/03/17 01:01:18;;;;;;;36.63;18.27;;;;;;;2.24;100.00;97543.25;5095929;28;20806;-36
2022/03/17 01:03:48;;;;;;;57.40;19.17;;;;;;;2.14;100.00;97534.75;5095485;28;20439;-36
2022/03/17 01:06:15;;;;;;;50.00;21.43;;;;;;;2.25;100.00;97552.75;5095406;28;20526;-36
2022/03/17 01:08:43;;;;;;;43.47;20.07;;;;;;;2.17;100.00;97550.97;5095415;28;20443;-36
2022/03/17 01:11:10;;;;;;;39.33;19.10;;;;;;;2.13;100.00;97559.28;5095680;28;20453;-36
2022/03/17 01:13:37;;;;;;;48.33;21.90;;;;;;;2.00;100.00;97558.00;5095259;28;20578;-35
2022/03/17 01:16:05;;;;;;;61.80;22.80;;;;;;;1.87;100.00;97548.97;5095336;28;20441;-35
2022/03/17 01:18:32;;;;;;;48.23;19.63;;;;;;;1.76;100.00;97531.78;5095538;28;20443;-36
2022/03/17 01:21:01;;;;;;;44.90;18.53;;;;;;;1.88;100.00;97566.34;5095184;28;20446;-36
2022/03/17 01:23:28;;;;;;;59.33;23.20;;;;;;;1.88;100.00;97561.91;5095112;28;20926;-35
2022/03/17 01:25:56;;;;;;;46.77;17.40;;;;;;;1.78;100.00;97562.06;5095073;28;20518;-36
2022/03/17 01:28:23;;;;;;;60.77;23.93;;;;;;;1.80;100.00;97564.53;5095015;28;20451;-36
2022/03/17 01:30:52;;;;;;;51.03;20.13;;;;;;;1.75;100.00;97574.66;5095811;28;20478;-36
2022/03/17 01:33:19;;;;;;;62.50;20.43;;;;;;;1.66;100.00;97552.06;5094880;28;20479;-36
2022/03/17 01:35:46;;;;;;;62.10;22.07;;;;;;;1.70;100.00;97574.31;5094809;28;20443;-36
2022/03/17 01:38:15;;;;;;;62.53;22.17;;;;;;;1.55;100.00;97554.03;5095144;28;20446;-36
2022/03/17 01:40:42;;;;;;;53.83;21.50;;;;;;;1.71;100.00;97576.78;5094732;28;20966;-38
2022/03/17 01:43:10;;;;;;;42.53;18.90;;;;;;;1.72;100.00;97575.81;5095048;28;20526;-37
2022/03/17 01:45:37;;;;;;;71.90;25.83;;;;;;;1.79;100.00;97578.59;5094706;28;20479;-38
2022/03/17 01:48:05;;;;;;;37.80;20.37;;;;;;;1.80;100.00;97575.00;5094960;28;20443;-38
2022/03/17 01:50:33;;;;;;;51.70;19.43;;;;;;;1.80;100.00;97578.44;5094595;28;20788;-36
2022/03/17 01:53:00;;;;;;;46.63;21.40;;;;;;;1.87;100.00;97581.22;5094425;28;20446;-35
2022/03/17 01:55:30;;;;;;;40.37;18.20;;;;;;;1.93;100.00;97591.03;5094506;28;20443;-36
2022/03/17 01:57:58;;;;;;;41.73;17.97;;;;;;;2.02;100.00;97597.09;5095262;28;20482;-37
2022/03/17 02:00:25;;;;;;;48.90;19.90;;;;;;;2.10;100.00;97596.31;5094422;28;20965;-38
2022/03/17 02:02:53;;;;;;;41.57;19.13;;;;;;;2.17;100.00;97599.91;5094390;28;20527;-38
2022/03/17 02:05:21;;;;;;;49.00;20.50;;;;;;;2.23;100.00;97605.31;5094340;28;20454;-38
2022/03/17 02:07:50;;;;;;;39.20;19.03;;;;;;;2.29;100.00;97601.22;5094300;28;20447;-37
2022/03/17 02:10:18;;;;;;;38.70;16.50;;;;;;;2.28;100.00;97604.84;5094345;28;20763;-37
2022/03/17 02:15:33;;;;;;;30.90;16.03;;;;;;;2.25;100.00;97598.09;5094272;28;20403;-37
2022/03/17 02:18:02;;;;;;;41.33;16.97;;;;;;;2.35;100.00;97613.69;5094096;28;20838;-38
2022/03/17 02:20:32;;;;;;;35.37;16.80;;;;;;;2.34;100.00;97609.41;5094047;28;20443;-37
2022/03/17 02:25:50;;;;;;;48.77;19.67;;;;;;;2.33;100.00;97622.69;5093990;28;20414;-37
2022/03/17 02:28:18;;;;;;;46.47;18.30;;;;;;;2.33;100.00;97622.69;5093907;28;20433;-37
2022/03/17 02:30:45;;;;;;;46.67;20.37;;;;;;;2.35;100.00;97629.41;5093895;28;20431;-37
2022/03/17 02:33:16;;;;;;;94.07;37.60;;;;;;;2.36;100.00;97635.47;5093766;28;20454;-37
2022/03/17 02:35:45;;;;;;;77.30;37.27;;;;;;;2.32;100.00;97636.75;5093842;28;20431;-37
2022/03/17 02:38:14;;;;;;;50.13;25.07;;;;;;;2.30;100.00;97643.97;5094089;28;20447;-37
2022/03/17 02:40:43;;;;;;;43.80;20.03;;;;;;;2.35;100.00;97646.94;5094036;28;20484;-38
2022/03/17 02:43:14;;;;;;;36.37;17.80;;;;;;;2.38;100.00;97644.78;5094072;28;20443;-38
2022/03/17 02:45:42;;;;;;;34.13;16.67;;;;;;;2.42;100.00;97647.91;5093724;28;20434;-37
2022/03/17 02:48:11;;;;;;;37.93;16.80;;;;;;;2.44;100.00;97644.13;5093668;28;20471;-37
2022/03/17 02:50:39;;;;;;;35.90;19.37;;;;;;;2.46;100.00;97644.78;5093941;28;20439;-38
2022/03/17 02:53:07;;;;;;;48.57;19.77;;;;;;;2.51;100.00;97648.72;5093775;28;20442;-37
2022/03/17 02:55:37;;;;;;;37.67;18.20;;;;;;;2.50;100.00;97647.09;5093586;28;20443;-38
2022/03/17 02:58:05;;;;;;;39.20;18.00;;;;;;;2.45;100.00;97640.56;5093534;28;20906;-38
2022/03/17 03:00:33;;;;;;;36.03;18.53;;;;;;;2.44;100.00;97644.13;5094562;28;20458;-37
2022/03/17 03:03:01;;;;;;;38.93;18.97;;;;;;;2.40;100.00;97650.69;5108387;28;20454;-37
2022/03/17 03:05:28;;;;;;;44.33;21.23;;;;;;;2.39;100.00;97650.88;5111897;28;20880;-38
2022/03/17 03:07:56;;;;;;;33.43;19.83;;;;;;;2.38;100.00;97652.66;5112874;28;20438;-38
2022/03/17 03:10:23;;;;;;;33.37;17.87;;;;;;;2.38;100.00;97660.50;5113755;28;20538;-37
2022/03/17 03:12:52;;;;;;;42.20;19.47;;;;;;;2.37;100.00;97665.94;5112849;28;20465;-38
2022/03/17 03:15:19;;;;;;;37.70;18.40;;;;;;;2.37;100.00;97664.13;5113643;28;20489;-38
2022/03/17 03:17:47;;;;;;;42.07;19.23;;;;;;;2.42;100.00;97674.13;5113785;28;20477;-38
2022/03/17 03:20:14;;;;;;;49.90;22.10;;;;;;;2.41;100.00;97668.06;5113674;28;20445;-38
2022/03/17 03:22:42;;;;;;;43.37;22.30;;;;;;;2.43;100.00;97683.63;5114076;28;20442;-38
2022/03/17 03:25:10;;;;;;;50.07;22.63;;;;;;;2.42;100.00;97669.69;5117847;28;20437;-37
2022/03/17 03:27:39;;;;;;;51.40;25.63;;;;;;;2.41;100.00;97672.47;5117762;28;20448;-37
2022/03/17 03:30:11;;;;;;;49.17;24.87;;;;;;;2.43;100.00;97676.59;5118038;28;20465;-37
2022/03/17 03:32:39;;;;;;;60.47;24.90;;;;;;;2.45;100.00;97674.63;5117958;28;20431;-37
2022/03/17 03:37:48;;;;;;;51.97;25.23;;;;;;;2.45;100.00;97674.63;5117553;28;20459;-36
2022/03/17 03:40:15;;;;;;;54.47;27.27;;;;;;;2.42;100.00;97680.19;5117878;28;20820;-36
2022/03/17 03:42:43;;;;;;;58.83;26.40;;;;;;;2.39;100.00;97675.28;5117714;28;20521;-36
2022/03/17 03:45:12;;;;;;;58.37;24.27;;;;;;;2.27;100.00;97668.69;5117462;28;20495;-37
2022/03/17 03:47:39;;;;;;;44.80;23.30;;;;;;;2.37;100.00;97681.66;5117407;28;20825;-36
2022/03/17 03:50:07;;;;;;;56.43;22.80;;;;;;;2.40;100.00;97691.81;5117680;28;20472;-35
2022/03/17 03:52:35;;;;;;;41.73;22.47;;;;;;;2.44;100.00;97693.94;5118122;28;20489;-35
2022/03/17 03:55:02;;;;;;;53.50;22.30;;;;;;;2.48;100.00;97697.06;5117151;28;20569;-36
2022/03/17 03:57:29;;;;;;;46.53;22.63;;;;;;;2.51;100.00;97701.97;5118031;28;20477;-36
2022/03/17 03:59:57;;;;;;;45.10;23.80;;;;;;;2.54;100.00;97708.69;5117143;28;20445;-36
2022/03/17 04:02:25;;;;;;;53.27;22.80;;;;;;;2.57;100.00;97703.13;5117413;28;20506;-35
2022/03/17 04:04:53;;;;;;;61.87;27.30;;;;;;;2.59;100.00;97707.22;5117342;28;20498;-35
2022/03/17 04:07:20;;;;;;;68.23;30.37;;;;;;;2.61;100.00;97701.81;5117303;28;20510;-36
2022/03/17 04:09:48;;;;;;;92.80;31.17;;;;;;;2.62;100.00;97716.56;5117012;28;20434;-36
2022/03/17 04:12:16;;;;;;;85.97;39.13;;;;;;;2.61;100.00;97715.75;5116889;28;20473;-37
2022/03/17 04:14:43;;;;;;;97.80;39.57;;;;;;;2.58;100.00;97720.50;5116828;28;20585;-36
2022/03/17 04:17:11;;;;;;;82.50;32.80;;;;;;;2.58;100.00;97720.50;5117063;28;20446;-36
2022/03/17 04:19:39;;;;;;;69.60;33.07;;;;;;;2.59;100.00;97727.38;5116739;28;20521;-37
2022/03/17 04:22:07;;;;;;;69.17;31.40;;;;;;;2.61;100.00;97720.19;5116795;28;20952;-36
2022/03/17 04:24:35;;;;;;;78.13;31.83;;;;;;;2.56;100.00;97725.06;5116711;28;20533;-36
2022/03/17 04:27:02;;;;;;;70.53;29.40;;;;;;;2.54;100.00;97735.75;5116961;28;20446;-35
2022/03/17 04:29:29;;;;;;;57.40;26.17;;;;;;;2.55;100.00;97726.06;5116902;28;20456;-36
2022/03/17 04:31:57;;;;;;;82.83;31.80;;;;;;;2.54;100.00;97734.91;5116633;27;20449;-35
2022/03/17 04:34:24;;;;;;;68.63;30.77;;;;;;;2.55;100.00;97741.81;5116213;28;20504;-35
2022/03/17 04:36:53;;;;;;;65.47;34.97;;;;;;;2.55;100.00;97741.81;5116478;28;20526;-35
2022/03/17 04:39:20;;;;;;;67.30;34.30;;;;;;;2.55;100.00;97740.00;5116701;28;20762;-36
2022/03/17 04:41:48;;;;;;;70.50;34.60;;;;;;;2.56;100.00;97751.28;5116599;28;20442;-36
2022/03/17 04:44:15;;;;;;;73.90;33.73;;;;;;;2.57;100.00;97745.91;5116557;28;20438;-36
2022/03/17 04:46:42;;;;;;;72.70;35.43;;;;;;;2.59;100.00;97753.59;5116175;28;20450;-36
2022/03/17 04:49:11;;;;;;;77.47;36.30;;;;;;;2.59;100.00;97758.84;5116235;28;20437;-36
2022/03/17 04:51:38;;;;;;;77.97;37.50;;;;;;;2.58;100.00;97760.66;5116516;28;20442;-36
2022/03/17 04:54:07;;;;;;;80.33;36.00;;;;;;;2.61;100.00;97767.38;5116371;28;20482;-35
2022/03/17 04:56:35;;;;;;;82.00;36.40;;;;;;;2.59;100.00;97766.72;5116051;28;20959;-35
2022/03/17 04:59:02;;;;;;;93.47;39.73;;;;;;;2.53;100.00;97776.03;5108477;28;20465;-35
2022/03/17 05:01:29;;;;;;;96.23;46.33;;;;;;;2.23;100.00;97748.63;5095939;28;20447;-34
2022/03/17 05:03:57;;;;;;;215.83;87.50;;;;;;;2.28;100.00;97776.97;5095348;28;20904;-35
2022/03/17 05:06:24;;;;;;;102.37;47.87;;;;;;;2.16;100.00;97779.06;5095394;28;20447;-36
2022/03/17 05:08:51;;;;;;;99.37;39.80;;;;;;;2.05;100.00;97781.00;5095641;28;20510;-35
2022/03/17 05:11:20;;;;;;;107.80;43.23;;;;;;;1.93;100.00;97784.84;5095123;28;20879;-38
2022/03/17 05:13:48;;;;;;;89.27;40.90;;;;;;;1.86;100.00;97778.63;5095304;28;20467;-35
2022/03/17 05:16:16;;;;;;;112.53;44.40;;;;;;;1.80;100.00;97779.25;5095428;28;20826;-37
2022/03/17 05:18:43;;;;;;;105.03;42.30;;;;;;;1.68;100.00;97790.94;5095158;28;20447;-36
2022/03/17 05:21:10;;;;;;;97.70;40.87;;;;;;;1.62;100.00;97788.00;5095137;28;20439;-37
2022/03/17 05:23:38;;;;;;;114.73;37.53;;;;;;;1.55;100.00;97789.59;5095425;28;20431;-38
2022/03/17 05:26:08;;;;;;;106.03;35.70;;;;;;;1.51;100.00;97800.53;5095347;28;20459;-37
2022/03/17 05:28:37;;;;;;;95.07;42.37;;;;;;;1.49;100.00;97805.91;5094924;28;20443;-38
2022/03/17 05:31:04;;;;;;;97.83;41.97;;;;;;;1.39;100.00;97797.34;5094943;28;20492;-37
2022/03/17 05:33:32;;;;;;;79.87;33.00;;;;;;;1.27;100.00;97791.53;5094821;28;20810;-38
2022/03/17 05:36:00;;;;;;;84.73;36.17;;;;;;;1.43;100.00;97814.38;5095060;28;20921;-37
2022/03/17 05:38:27;;;;;;;94.00;35.57;;;;;;;1.44;100.00;97816.00;5094731;28;20522;-37
2022/03/17 05:40:54;;;;;;;70.17;33.07;;;;;;;1.45;100.00;97837.78;5094667;28;20443;-37
2022/03/17 05:43:23;;;;;;;94.70;41.53;;;;;;;1.46;100.00;97824.53;5094742;28;21025;-37
2022/03/17 05:45:52;;;;;;;91.97;36.30;;;;;;;1.51;100.00;97832.75;5094095;28;20442;-37
2022/03/17 05:48:19;;;;;;;88.07;33.60;;;;;;;1.49;100.00;97845.19;5094857;28;20930;-37
2022/03/17 05:50:46;;;;;;;81.60;32.27;;;;;;;1.51;100.00;97838.00;5094468;28;20526;-37
2022/03/17 05:53:13;;;;;;;66.60;27.30;;;;;;;1.44;100.00;97836.94;5094807;28;20542;-38
2022/03/17 05:55:41;;;;;;;75.40;28.53;;;;;;;1.50;100.00;97849.41;5094328;28;20498;-38
2022/03/17 05:58:08;;;;;;;58.70;25.50;;;;;;;1.50;100.00;97846.81;5094740;28;20488;-38
2022/03/17 06:00:36;;;;;;;51.97;22.00;;;;;;;1.39;100.00;97839.22;5094447;28;20435;-37
2022/03/17 06:03:05;;;;;;;41.73;23.73;;;;;;;1.49;100.00;97855.66;5094609;28;20443;-37
2022/03/17 06:05:33;;;;;;;62.00;26.30;;;;;;;1.51;100.00;97863.34;5094284;28;20478;-38
2022/03/17 06:08:01;;;;;;;56.77;23.10;;;;;;;1.28;100.00;97823.75;5094469;28;20447;-39
2022/03/17 06:10:32;;;;;;;87.67;32.20;;;;;;;1.49;100.00;97860.06;5094214;28;20964;-37
2022/03/17 06:13:00;;;;;;;70.77;32.13;;;;;;;1.45;100.00;97862.16;5093961;28;20550;-37
2022/03/17 06:15:28;;;;;;;68.60;28.77;;;;;;;1.46;100.00;97873.44;5093999;28;20487;-38
2022/03/17 06:17:57;;;;;;;68.37;32.60;;;;;;;1.43;100.00;97866.72;5094035;28;20473;-37
2022/03/17 06:20:27;;;;;;;61.23;25.90;;;;;;;1.40;100.00;97878.31;5093985;28;20443;-38
2022/03/17 06:22:57;;;;;;;46.20;22.07;;;;;;;1.39;100.00;97883.69;5094624;28;20836;-38
2022/03/17 06:25:26;;;;;;;67.10;30.50;;;;;;;1.40;100.00;97882.75;5093940;28;20443;-38
2022/03/17 06:27:54;;;;;;;86.40;37.97;;;;;;;1.44;100.00;97894.53;5094177;28;20477;-38
2022/03/17 06:30:23;;;;;;;59.43;27.20;;;;;;;1.48;100.00;97890.63;5093860;28;20518;-39
2022/03/17 06:32:50;;;;;;;74.63;38.77;;;;;;;1.45;100.00;97911.88;5102332;28;20854;-38
2022/03/17 06:35:20;;;;;;;66.77;32.77;;;;;;;1.42;100.00;97896.50;5114145;28;20490;-38
2022/03/17 06:37:51;;;;;;;70.83;35.20;;;;;;;1.43;100.00;97903.34;5114434;28;20797;-37
2022/03/17 06:40:19;;;;;;;61.03;31.03;;;;;;;1.44;100.00;97910.22;5114489;28;20842;-37
2022/03/17 06:42:47;;;;;;;66.47;33.97;;;;;;;1.47;100.00;97915.16;5114033;28;20872;-38
2022/03/17 06:45:15;;;;;;;56.43;26.67;;;;;;;1.48;100.00;97916.00;5114059;28;20449;-38
2022/03/17 06:47:43;;;;;;;69.70;29.27;;;;;;;1.51;100.00;97920.94;5113973;28;20921;-37
2022/03/17 06:50:12;;;;;;;69.50;28.70;;;;;;;1.56;100.00;97919.50;5114348;28;20525;-37
2022/03/17 06:52:40;;;;;;;59.03;27.00;;;;;;;1.60;100.00;97920.84;5113957;28;20799;-37
2022/03/17 06:55:10;;;;;;;67.50;32.50;;;;;;;1.63;100.00;97925.78;5113836;28;21003;-37
2022/03/17 06:57:37;;;;;;;60.43;31.27;;;;;;;1.63;100.00;97928.41;5114043;28;20430;-37
2022/03/17 07:00:06;;;;;;;67.67;29.63;;;;;;;1.68;100.00;97929.72;5113808;28;20946;-37
2022/03/17 07:02:34;;;;;;;49.13;23.10;;;;;;;1.78;100.00;97919.97;5113841;28;20465;-38
2022/03/17 07:05:01;;;;;;;44.93;22.03;;;;;;;1.96;100.00;97925.19;5113717;28;20545;-37
2022/03/17 07:07:28;;;;;;;45.73;20.73;;;;;;;2.10;100.00;97913.31;5113776;28;20446;-37
2022/03/17 07:09:56;;;;;;;47.90;22.10;;;;;;;2.22;100.00;97915.50;5113706;28;20453;-37
2022/03/17 07:12:24;;;;;;;51.00;22.80;;;;;;;2.34;100.00;97916.03;5113700;28;20485;-38
2022/03/17 07:14:52;;;;;;;117.67;40.97;;;;;;;2.43;100.00;97920.38;5113658;28;21050;-38
2022/03/17 07:17:21;;;;;;;89.73;34.37;;;;;;;2.50;100.00;97925.00;5113950;28;20517;-37
2022/03/17 07:22:24;;;;;;;50.40;22.20;;;;;;;2.38;100.00;97906.91;5113825;28;20909;-37
2022/03/17 07:24:53;;;;;;;81.43;32.57;;;;;;;2.58;100.00;97932.88;5113735;28;20495;-38
2022/03/17 07:27:21;;;;;;;60.43;29.90;;;;;;;2.59;100.00;97947.63;5113605;28;20438;-39
2022/03/17 07:29:50;;;;;;;53.27;22.70;;;;;;;2.69;100.00;97948.34;5113577;28;20438;-38
2022/03/17 07:32:18;;;;;;;45.70;26.50;;;;;;;2.74;100.00;97948.69;5113613;28;20445;-39
2022/03/17 07:34:46;;;;;;;51.87;25.83;;;;;;;2.76;100.00;97954.59;5113342;28;20445;-38
2022/03/17 07:37:13;;;;;;;43.70;21.50;;;;;;;2.80;100.00;97957.72;5113519;28;20838;-37
2022/03/17 07:39:41;;;;;;;54.90;26.83;;;;;;;2.85;100.00;97963.31;5113424;28;20478;-38
2022/03/17 07:42:08;;;;;;;62.70;25.57;;;;;;;2.90;100.00;97965.44;5112737;28;20449;-38
2022/03/17 07:44:37;;;;;;;61.80;27.47;;;;;;;2.95;100.00;97963.19;5112600;28;20498;-38
2022/03/17 07:47:08;;;;;;;63.93;29.77;;;;;;;2.94;100.00;97956.28;5113100;28;20452;-38
2022/03/17 07:49:36;;;;;;;43.40;24.50;;;;;;;3.03;100.00;97965.81;5112734;28;20431;-38
2022/03/17 07:52:03;;;;;;;59.93;26.27;;;;;;;3.04;100.00;97972.72;5113435;28;20521;-38
2022/03/17 07:54:30;;;;;;;41.07;22.87;;;;;;;3.03;100.00;97976.31;5113350;28;20438;-39
2022/03/17 07:56:58;;;;;;;55.90;28.20;;;;;;;3.00;100.00;97971.38;5113203;28;20490;-38
2022/03/17 07:59:26;;;;;;;50.10;28.50;;;;;;;2.94;100.00;97977.28;5113357;28;20540;-38
2022/03/17 08:01:54;;;;;;;55.27;23.33;;;;;;;2.91;100.00;97977.59;5113597;28;20442;-38
2022/03/17 08:04:23;;;;;;;43.30;22.57;;;;;;;2.81;100.00;97973.28;5110989;28;21004;-39
2022/03/17 08:06:53;;;;;;;44.37;22.10;;;;;;;2.76;100.00;97980.81;5101420;28;20475;-38
2022/03/17 08:09:21;;;;;;;55.73;22.23;;;;;;;2.72;100.00;97979.47;5114285;28;20426;-39
2022/03/17 08:11:49;;;;;;;53.33;24.83;;;;;;;2.61;100.00;97979.78;5116919;28;20832;-38
2022/03/17 08:14:16;;;;;;;54.63;28.93;;;;;;;2.56;100.00;97987.25;5116841;28;20473;-38
2022/03/17 08:16:44;;;;;;;73.10;30.70;;;;;;;2.50;100.00;97991.34;5117030;28;21010;-38
2022/03/17 08:19:12;;;;;;;53.07;25.70;;;;;;;2.47;100.00;97991.63;5117058;28;20829;-38
2022/03/17 08:21:41;;;;;;;45.83;20.40;;;;;;;2.37;100.00;97986.53;5116776;28;20442;-38
2022/03/17 08:24:08;;;;;;;39.13;17.73;;;;;;;2.38;100.00;97989.97;5116599;28;20521;-38
2022/03/17 08:26:37;;;;;;;62.70;32.97;;;;;;;2.32;100.00;97994.00;5116586;27;20453;-38
2022/03/17 08:29:05;;;;;;;36.70;21.07;;;;;;;2.27;100.00;97988.41;5116576;28;20453;-38
2022/03/17 08:31:33;;;;;;;36.17;18.33;;;;;;;2.31;100.00;97992.38;5116830;28;20465;-39
2022/03/17 08:34:00;;;;;;;38.60;18.17;;;;;;;2.20;100.00;97976.91;5116485;28;20438;-38
2022/03/17 08:36:28;;;;;;;42.03;16.17;;;;;;;2.26;100.00;97989.41;5116297;27;20516;-38
2022/03/17 08:38:57;;;;;;;49.30;19.63;;;;;;;2.26;100.00;97992.03;5116345;28;20926;-38
2022/03/17 08:41:25;;;;;;;35.60;15.97;;;;;;;2.14;100.00;97985.38;5116617;28;20453;-39
2022/03/17 08:43:53;;;;;;;34.07;16.63;;;;;;;2.24;100.00;98001.84;5116266;28;20437;-39
2022/03/17 08:49:21;;;;;;;34.00;17.17;;;;;;;2.25;100.00;97993.00;5116551;28;20459;-37
2022/03/17 08:51:51;;;;;;;51.93;25.20;;;;;;;2.32;100.00;98022.03;5116133;28;20798;-37
2022/03/17 08:54:22;;;;;;;48.47;24.70;;;;;;;2.35;100.00;98003.38;5116370;28;20798;-38
2022/03/17 08:56:49;;;;;;;41.80;20.23;;;;;;;2.40;100.00;98007.16;5116285;28;20506;-38
2022/03/17 08:59:16;;;;;;;49.37;23.77;;;;;;;2.44;100.00;98012.94;5115945;28;20499;-37
2022/03/17 09:01:44;;;;;;;37.77;17.77;;;;;;;2.49;100.00;98021.16;5116029;28;20433;-38
2022/03/17 09:04:14;;;;;;;45.60;19.80;;;;;;;2.57;100.00;98017.75;5116166;28;20493;-38
2022/03/17 09:06:43;;;;;;;60.07;24.73;;;;;;;2.62;100.00;98020.72;5115812;28;20454;-37
2022/03/17 09:09:11;;;;;;;43.27;19.73;;;;;;;2.60;100.00;98025.31;5115727;28;20450;-37
2022/03/17 09:11:41;;;;;;;50.73;18.67;;;;;;;2.60;100.00;98017.44;5115823;28;20552;-38
2022/03/17 09:14:09;;;;;;;42.27;22.40;;;;;;;2.56;100.00;98016.09;5115644;28;20536;-37
2022/03/17 09:16:36;;;;;;;48.80;20.13;;;;;;;2.64;100.00;98019.59;5115599;28;20493;-38
2022/03/17 09:19:04;;;;;;;57.00;26.80;;;;;;;2.66;100.00;98024.69;5115539;28;20525;-38
2022/03/17 09:21:32;;;;;;;91.57;37.67;;;;;;;2.63;100.00;98017.97;5115842;28;20865;-38
2022/03/17 09:24:00;;;;;;;38.63;18.93;;;;;;;2.56;100.00;98013.47;5115783;28;20495;-37
2022/03/17 09:26:27;;;;;;;64.87;30.60;;;;;;;2.66;100.00;98016.81;5116314;28;20434;-38
2022/03/17 09:28:56;;;;;;;48.00;19.53;;;;;;;2.65;100.00;98030.94;5115724;28;20495;-38
2022/03/17 09:31:24;;;;;;;46.40;21.93;;;;;;;2.66;100.00;98032.56;5115663;28;20498;-38
2022/03/17 09:33:51;;;;;;;35.33;16.80;;;;;;;2.67;100.00;98023.72;5115593;28;20500;-38
2022/03/17 09:36:18;;;;;;;44.67;21.33;;;;;;;2.68;100.00;98030.59;5115181;28;20493;-38
2022/03/17 09:39:39;;;;;;;31.83;15.43;;;;;;;2.63;100.00;98022.38;5115498;28;20761;-37
2022/03/17 09:41:35;;;;;;;37.10;17.40;;;;;;;2.65;100.00;98020.44;5115047;28;20511;-38
2022/03/17 09:44:04;;;;;;;45.73;20.53;;;;;;;2.69;100.00;98027.00;5115117;27;20952;-38
2022/03/17 09:46:33;;;;;;;48.00;20.90;;;;;;;2.70;100.00;98028.66;5115965;28;20438;-35
2022/03/17 09:49:02;;;;;;;53.67;17.23;;;;;;;2.72;100.00;98042.44;5114954;28;20442;-37
2022/03/17 09:51:30;;;;;;;41.93;21.07;;;;;;;2.72;100.00;98039.81;5115274;28;20469;-38
2022/03/17 09:54:00;;;;;;;34.73;16.63;;;;;;;2.55;100.00;98014.47;5115376;28;20472;-37
2022/03/17 09:56:29;;;;;;;44.73;18.93;;;;;;;2.74;100.00;98037.84;5115136;28;20496;-38
2022/03/17 09:58:58;;;;;;;41.17;21.00;;;;;;;2.78;100.00;98036.56;5115075;28;20449;-38
2022/03/17 10:01:27;;;;;;;44.07;16.87;;;;;;;2.79;100.00;98047.88;5115006;28;20449;-38
2022/03/17 10:03:59;;;;;;;38.40;15.90;;;;;;;2.74;100.00;98050.16;5114960;28;20446;-38
2022/03/17 10:06:28;;;;;;;42.63;18.90;;;;;;;2.79;100.00;98040.00;5114680;28;20796;-39
2022/03/17 10:08:57;;;;;;;36.00;15.30;;;;;;;2.73;100.00;98054.56;5114550;28;20447;-38
2022/03/17 10:11:29;;;;;;;26.73;12.47;;;;;;;2.75;100.00;98063.09;5114763;28;20839;-38
2022/03/17 10:13:57;;;;;;;36.40;15.60;;;;;;;2.67;100.00;98056.00;5114536;28;20430;-36
2022/03/17 10:16:27;;;;;;;35.93;15.57;;;;;;;2.62;100.00;98055.66;5114403;28;20486;-39
2022/03/17 10:18:59;;;;;;;22.60;12.90;;;;;;;2.62;100.00;98062.69;5114357;27;20790;-38
2022/03/17 10:21:28;;;;;;;18.53;11.90;;;;;;;2.51;100.00;98062.94;5114708;28;20450;-38
2022/03/17 10:23:57;;;;;;;25.03;13.50;;;;;;;2.58;100.00;98066.59;5114345;28;20450;-38
2022/03/17 10:26:39;;;;;;;19.03;12.23;;;;;;;2.46;100.00;98053.75;5114362;28;20817;-38
2022/03/17 10:29:12;;;;;;;17.43;9.73;;;;;;;2.50;100.00;98064.75;5114524;28;20441;-38
2022/03/17 10:32:00;;;;;;;13.43;9.40;;;;;;;2.45;100.00;98073.09;5113931;28;20850;-38
2022/03/17 10:34:29;;;;;;;18.87;10.00;;;;;;;2.48;100.00;98071.94;5114458;28;20768;-38
2022/03/17 10:37:11;;;;;;;23.23;12.03;;;;;;;2.44;100.00;98063.56;5114463;28;20569;-38
2022/03/17 10:39:42;;;;;;;12.63;9.43;;;;;;;2.45;100.00;98082.72;5114155;28;20433;-39
2022/03/17 10:42:14;;;;;;;21.03;10.50;;;;;;;2.50;100.00;98079.66;5114231;28;20426;-39
2022/03/17 10:44:46;;;;;;;17.90;11.43;;;;;;;2.33;100.00;98057.75;5114320;28;20861;-39
2022/03/17 10:47:15;;;;;;;30.63;11.80;;;;;;;2.48;100.00;98073.75;5114047;28;20465;-38
2022/03/17 10:50:01;;;;;;;20.37;11.77;;;;;;;2.45;100.00;98078.31;5114007;28;20469;-39
2022/03/17 10:52:44;;;;;;;21.13;10.30;;;;;;;2.38;100.00;98082.53;5114420;28;20472;-39
2022/03/17 10:55:11;;;;;;;10.90;7.57;;;;;;;2.41;100.00;98089.25;5114346;28;20422;-39
2022/03/17 10:57:39;;;;;;;13.23;8.13;;;;;;;2.37;100.00;98086.13;5113868;28;20929;-38
2022/03/17 11:00:12;;;;;;;18.80;10.37;;;;;;;2.41;100.00;98077.00;5113819;28;20776;-38
2022/03/17 11:02:41;;;;;;;22.80;11.60;;;;;;;2.39;100.00;98088.59;5113603;28;20445;-37
2022/03/17 11:05:10;;;;;;;18.70;7.87;;;;;;;2.34;100.00;98078.56;5113790;28;20442;-38
2022/03/17 11:07:38;;;;;;;21.20;9.93;;;;;;;2.37;100.00;98074.81;5113760;28;20492;-38
2022/03/17 11:10:07;;;;;;;16.10;7.70;;;;;;;2.36;100.00;98079.22;5113704;28;20530;-38
2022/03/17 11:12:35;;;;;;;20.30;9.90;;;;;;;2.37;100.00;98080.88;5113496;28;20833;-38
2022/03/17 11:15:03;;;;;;;16.93;9.27;;;;;;;2.32;100.00;98077.88;5113658;28;20965;-38
2022/03/17 11:17:47;;;;;;;16.10;9.63;;;;;;;2.28;100.00;98073.94;5113603;28;20564;-37
2022/03/17 11:20:22;;;;;;;12.63;6.70;;;;;;;2.31;100.00;98085.91;5113532;28;20921;-38
2022/03/17 11:23:05;;;;;;;13.93;8.53;;;;;;;2.29;100.00;98072.97;5114009;28;20445;-37
2022/03/17 11:25:35;;;;;;;8.87;7.33;;;;;;;2.29;100.00;98083.44;5113873;28;20429;-37
2022/03/17 11:28:05;;;;;;;17.70;9.63;;;;;;;2.11;100.00;98064.28;5113626;28;20432;-37
2022/03/17 11:30:41;;;;;;;13.70;7.70;;;;;;;2.35;100.00;98077.59;5113564;28;20470;-39
2022/03/17 11:33:23;;;;;;;16.93;8.77;;;;;;;2.17;100.00;98053.19;5113910;28;20422;-38
2022/03/17 11:35:59;;;;;;;20.67;8.47;;;;;;;2.29;100.00;98054.59;5113472;28;20430;-38
2022/03/17 11:38:28;;;;;;;55.33;24.43;;;;;;;2.33;100.00;98074.31;5113737;28;20766;-38